createdAt,value
2019-06-27T00:00:21.270Z,84.80
2019-06-27T00:02:50.724Z,85.20
2019-06-27T00:05:20.136Z,85.40
2019-06-27T00:07:49.572Z,85.60
2019-06-27T00:10:19.398Z,85.90
2019-06-27T00:12:48.854Z,86.00
2019-06-27T00:15:18.294Z,86.10
2019-06-27T00:17:47.681Z,86.20
2019-06-27T00:20:17.209Z,86.30
2019-06-27T00:22:46.784Z,86.40
2019-06-27T00:25:16.298Z,86.40
2019-06-27T00:27:45.717Z,86.60
2019-06-27T00:30:15.195Z,86.70
2019-06-27T00:32:44.588Z,87.00
2019-06-27T00:35:14.016Z,87.10
2019-06-27T00:37:43.447Z,87.30
2019-06-27T00:40:13.121Z,87.70
2019-06-27T00:42:42.505Z,88.00
2019-06-27T00:45:12.309Z,88.40
2019-06-27T00:47:41.701Z,88.70
2019-06-27T00:50:11.256Z,88.90
2019-06-27T00:52:40.734Z,88.80
2019-06-27T00:55:10.220Z,88.80
2019-06-27T00:57:39.709Z,88.70
2019-06-27T01:00:09.623Z,88.60
2019-06-27T01:02:39.154Z,88.50
2019-06-27T01:05:08.794Z,88.40
2019-06-27T01:07:38.206Z,88.30
2019-06-27T01:10:07.992Z,88.00
2019-06-27T01:12:37.404Z,87.80
2019-06-27T01:15:07.237Z,87.60
2019-06-27T01:17:36.642Z,87.50
2019-06-27T01:20:07.626Z,87.30
2019-06-27T01:22:37.029Z,87.20
2019-06-27T01:25:06.727Z,87.30
2019-06-27T01:27:36.166Z,87.30
2019-06-27T01:30:06.778Z,87.60
2019-06-27T01:32:36.188Z,87.70
2019-06-27T01:35:05.789Z,87.90
2019-06-27T01:37:35.249Z,88.00
2019-06-27T01:40:05.523Z,88.00
2019-06-27T01:42:35.006Z,88.20
2019-06-27T01:45:18.904Z,88.40
2019-06-27T01:47:48.340Z,88.60
2019-06-27T01:50:17.772Z,88.70
2019-06-27T01:52:47.457Z,88.80
2019-06-27T01:55:17.015Z,88.90
2019-06-27T01:57:47.392Z,89.10
2019-06-27T02:00:18.532Z,89.30
2019-06-27T02:02:47.977Z,89.50
2019-06-27T02:05:17.390Z,89.70
2019-06-27T02:07:46.845Z,90.00
2019-06-27T02:10:16.485Z,90.00
2019-06-27T02:12:45.944Z,90.10
2019-06-27T02:15:16.201Z,90.10
2019-06-27T02:17:45.656Z,90.20
2019-06-27T02:20:16.100Z,90.20
2019-06-27T02:22:45.605Z,90.30
2019-06-27T02:25:15.545Z,90.40
2019-06-27T02:27:44.972Z,90.40
2019-06-27T02:30:15.089Z,90.50
2019-06-27T02:32:44.557Z,90.40
2019-06-27T02:35:14.375Z,90.40
2019-06-27T02:37:43.917Z,90.40
2019-06-27T02:40:13.560Z,90.50
2019-06-27T02:42:42.949Z,90.60
2019-06-27T02:45:12.520Z,90.70
2019-06-27T02:47:41.918Z,90.70
2019-06-27T02:50:11.584Z,90.70
2019-06-27T02:52:41.061Z,90.80
2019-06-27T02:55:10.474Z,90.90
2019-06-27T02:57:39.857Z,90.90
2019-06-27T03:00:10.165Z,90.90
2019-06-27T03:02:39.591Z,90.90
2019-06-27T03:05:09.922Z,90.90
2019-06-27T03:07:39.376Z,90.90
2019-06-27T03:10:09.105Z,91.00
2019-06-27T03:12:38.631Z,91.00
2019-06-27T03:15:08.426Z,91.10
2019-06-27T03:17:37.932Z,91.20
2019-06-27T03:20:07.962Z,91.30
2019-06-27T03:22:37.371Z,91.30
2019-06-27T03:25:06.805Z,91.30
2019-06-27T03:27:36.308Z,91.30
2019-06-27T03:30:06.215Z,91.30
2019-06-27T03:32:35.657Z,91.30
2019-06-27T03:35:05.143Z,91.30
2019-06-27T03:37:34.533Z,91.30
2019-06-27T03:40:04.046Z,91.20
2019-06-27T03:42:33.698Z,91.10
2019-06-27T03:45:03.110Z,91.00
2019-06-27T03:47:32.594Z,90.90
2019-06-27T03:50:02.106Z,90.90
2019-06-27T03:52:31.613Z,90.90
2019-06-27T03:55:01.058Z,90.90
2019-06-27T03:57:30.474Z,90.90
2019-06-27T03:59:59.918Z,90.80
2019-06-27T04:02:29.425Z,90.80
2019-06-27T04:04:58.877Z,90.70
2019-06-27T04:07:28.409Z,90.70
2019-06-27T04:09:57.926Z,90.60
2019-06-27T04:12:27.332Z,90.50
2019-06-27T04:14:56.726Z,90.40
2019-06-27T04:17:26.185Z,90.20
2019-06-27T04:19:55.590Z,90.40
2019-06-27T04:22:25.038Z,90.00
2019-06-27T04:24:54.451Z,89.60
2019-06-27T04:27:23.863Z,89.50
2019-06-27T04:29:53.288Z,89.40
2019-06-27T04:32:22.735Z,89.20
2019-06-27T04:34:52.165Z,88.90
2019-06-27T04:37:21.570Z,88.60
2019-06-27T04:39:51.009Z,88.20
2019-06-27T04:42:21.165Z,87.70
2019-06-27T04:44:50.643Z,87.20
2019-06-27T04:47:20.050Z,86.90
2019-06-27T04:49:49.473Z,86.60
2019-06-27T04:52:18.905Z,86.40
2019-06-27T04:54:48.486Z,86.30
2019-06-27T04:57:17.900Z,86.10
2019-06-27T04:59:53.181Z,86.00
2019-06-27T05:02:18.487Z,85.90
2019-06-27T05:04:47.932Z,85.40
2019-06-27T05:07:17.399Z,85.00
2019-06-27T05:09:46.802Z,84.60
2019-06-27T05:12:16.217Z,84.20
2019-06-27T05:14:45.639Z,83.80
2019-06-27T05:17:15.070Z,83.30
2019-06-27T05:19:44.449Z,82.80
2019-06-27T05:22:13.924Z,82.50
2019-06-27T05:24:43.362Z,82.00
2019-06-27T05:27:12.764Z,81.60
2019-06-27T05:29:42.217Z,81.30
2019-06-27T05:32:11.635Z,81.00
2019-06-27T05:34:41.168Z,80.70
2019-06-27T05:37:10.573Z,80.50
2019-06-27T05:39:39.995Z,80.20
2019-06-27T05:42:09.398Z,80.00
2019-06-27T05:44:38.843Z,79.70
2019-06-27T05:47:08.261Z,79.50
2019-06-27T05:49:37.737Z,79.20
2019-06-27T05:52:07.169Z,79.20
2019-06-27T05:54:36.627Z,79.30
2019-06-27T05:57:06.088Z,79.10
2019-06-27T05:59:35.500Z,78.90
2019-06-27T06:02:04.948Z,78.50
2019-06-27T06:04:34.379Z,78.20
2019-06-27T06:07:03.759Z,78.00
2019-06-27T06:09:33.233Z,77.60
2019-06-27T06:12:02.680Z,77.10
2019-06-27T06:14:32.103Z,76.80
2019-06-27T06:17:01.497Z,76.50
2019-06-27T06:19:30.916Z,76.20
2019-06-27T06:22:00.297Z,75.80
2019-06-27T06:24:29.803Z,75.40
2019-06-27T06:26:59.216Z,75.10
2019-06-27T06:29:28.595Z,74.60
2019-06-27T06:31:58.014Z,74.10
2019-06-27T06:34:27.427Z,73.90
2019-06-27T06:36:56.870Z,73.60
2019-06-27T06:39:26.244Z,73.40
2019-06-27T06:41:55.764Z,73.10
2019-06-27T06:44:25.168Z,73.10
2019-06-27T06:46:54.615Z,73.20
2019-06-27T06:49:23.997Z,73.20
2019-06-27T06:51:53.384Z,73.00
2019-06-27T06:54:22.814Z,72.90
2019-06-27T06:56:52.205Z,72.70
2019-06-27T06:59:21.628Z,72.40
2019-06-27T07:01:51.078Z,72.10
2019-06-27T07:04:20.639Z,71.90
2019-06-27T07:06:50.061Z,71.60
2019-06-27T07:09:19.415Z,71.30
2019-06-27T07:11:48.880Z,71.00
2019-06-27T07:14:18.241Z,70.90
2019-06-27T07:16:47.655Z,70.70
2019-06-27T07:19:17.074Z,70.80
2019-06-27T07:21:46.498Z,70.80
2019-06-27T07:24:15.883Z,70.80
2019-06-27T07:26:45.343Z,70.70
2019-06-27T07:29:14.743Z,70.60
2019-06-27T07:31:44.151Z,70.30
2019-06-27T07:34:13.559Z,70.00
2019-06-27T07:36:42.969Z,69.60
2019-06-27T07:39:12.387Z,69.20
2019-06-27T07:41:41.789Z,68.90
2019-06-27T07:44:11.250Z,68.70
2019-06-27T07:46:40.639Z,68.40
2019-06-27T07:49:10.063Z,68.00
2019-06-27T07:51:39.453Z,67.70
2019-06-27T07:54:08.884Z,67.00
2019-06-27T07:56:38.276Z,66.50
2019-06-27T07:59:07.762Z,66.20
2019-06-27T08:01:37.128Z,66.40
2019-06-27T08:04:06.577Z,66.20
2019-06-27T08:06:35.948Z,66.00
2019-06-27T08:09:05.690Z,66.20
2019-06-27T08:11:35.065Z,66.40
2019-06-27T08:14:04.546Z,66.70
2019-06-27T08:16:34.729Z,67.10
2019-06-27T08:19:04.152Z,67.60
2019-06-27T08:21:33.592Z,67.90
2019-06-27T08:24:03.076Z,68.10
2019-06-27T08:26:32.500Z,68.20
2019-06-27T08:29:01.965Z,68.40
2019-06-27T08:31:31.376Z,68.30
2019-06-27T08:34:00.774Z,68.20
2019-06-27T08:36:30.140Z,68.10
2019-06-27T08:38:59.585Z,68.20
2019-06-27T08:41:29.009Z,68.10
2019-06-27T08:43:58.466Z,68.30
2019-06-27T08:46:29.946Z,68.20
2019-06-27T08:48:58.896Z,68.10
2019-06-27T08:51:28.355Z,67.80
2019-06-27T08:53:57.733Z,67.80
2019-06-27T08:56:27.208Z,67.60
2019-06-27T08:58:56.604Z,67.10
2019-06-27T09:01:25.993Z,67.80
2019-06-27T09:03:55.480Z,66.80
2019-06-27T09:06:24.893Z,66.30
2019-06-27T09:08:54.281Z,65.80
2019-06-27T09:11:23.708Z,65.40
2019-06-27T09:13:53.155Z,65.10
2019-06-27T09:16:22.595Z,65.00
2019-06-27T09:18:52.007Z,65.00
2019-06-27T09:21:21.387Z,65.00
2019-06-27T09:23:50.918Z,64.90
2019-06-27T09:26:20.293Z,64.70
2019-06-27T09:28:49.864Z,64.50
2019-06-27T09:31:19.231Z,64.10
2019-06-27T09:33:48.755Z,63.90
2019-06-27T09:36:18.168Z,63.90
2019-06-27T09:38:47.577Z,64.10
2019-06-27T09:41:16.986Z,64.10
2019-06-27T09:43:46.389Z,63.90
2019-06-27T09:46:15.831Z,64.10
2019-06-27T09:48:45.251Z,64.10
2019-06-27T09:51:14.661Z,63.60
2019-06-27T09:53:44.044Z,63.50
2019-06-27T09:56:13.470Z,63.30
2019-06-27T09:58:43.020Z,63.30
2019-06-27T10:01:12.508Z,63.20
2019-06-27T10:03:41.977Z,63.20
2019-06-27T10:06:11.402Z,62.90
2019-06-27T10:08:40.820Z,62.70
2019-06-27T10:11:10.211Z,62.90
2019-06-27T10:13:39.667Z,63.20
2019-06-27T10:16:09.073Z,62.90
2019-06-27T10:18:38.474Z,61.90
2019-06-27T10:21:07.876Z,61.60
2019-06-27T10:23:37.291Z,61.10
2019-06-27T10:26:06.716Z,60.70
2019-06-27T10:28:36.125Z,60.40
2019-06-27T10:31:14.376Z,60.60
2019-06-27T10:33:43.887Z,59.60
2019-06-27T10:36:14.244Z,59.10
2019-06-27T10:38:43.694Z,59.00
2019-06-27T10:41:13.201Z,58.90
2019-06-27T10:43:42.627Z,58.80
2019-06-27T10:46:12.036Z,59.00
2019-06-27T10:48:41.466Z,59.30
2019-06-27T10:51:10.875Z,59.40
2019-06-27T10:53:40.407Z,59.60
2019-06-27T10:56:09.839Z,59.80
2019-06-27T10:58:39.237Z,59.60
2019-06-27T11:01:08.676Z,59.50
2019-06-27T11:03:38.699Z,59.50
2019-06-27T11:06:08.214Z,59.20
2019-06-27T11:08:37.606Z,58.70
2019-06-27T11:11:07.063Z,58.50
2019-06-27T11:13:36.465Z,58.50
2019-06-27T11:16:06.086Z,58.70
2019-06-27T11:18:35.547Z,58.90
2019-06-27T11:21:04.997Z,59.00
2019-06-27T11:23:34.420Z,59.10
2019-06-27T11:26:03.731Z,59.40
2019-06-27T11:28:33.224Z,59.40
2019-06-27T11:31:02.620Z,59.30
2019-06-27T11:33:33.225Z,59.00
2019-06-27T11:36:02.786Z,58.60
2019-06-27T11:38:32.263Z,58.50
2019-06-27T11:41:01.669Z,58.60
2019-06-27T11:43:31.095Z,58.60
2019-06-27T11:46:00.490Z,58.50
2019-06-27T11:48:29.899Z,58.40
2019-06-27T11:50:59.628Z,58.40
2019-06-27T11:53:29.007Z,58.70
2019-06-27T11:55:58.432Z,58.70
2019-06-27T11:58:27.887Z,58.80
2019-06-27T12:00:57.394Z,59.00
2019-06-27T12:03:26.854Z,58.90
2019-06-27T12:05:56.277Z,58.80
2019-06-27T12:08:25.706Z,58.90
2019-06-27T12:10:55.112Z,58.80
2019-06-27T12:13:24.507Z,58.90
2019-06-27T12:15:53.945Z,58.40
2019-06-27T12:18:23.341Z,58.30
2019-06-27T12:20:52.780Z,58.30
2019-06-27T12:23:22.196Z,58.10
2019-06-27T12:25:51.628Z,57.80
2019-06-27T12:28:21.045Z,57.60
2019-06-27T12:30:50.452Z,57.40
2019-06-27T12:33:19.919Z,57.10
2019-06-27T12:35:49.352Z,56.90
2019-06-27T12:38:18.850Z,56.60
2019-06-27T12:40:48.250Z,56.50
2019-06-27T12:43:17.649Z,56.50
2019-06-27T12:45:47.088Z,56.40
2019-06-27T12:48:16.531Z,56.30
2019-06-27T12:50:46.021Z,56.50
2019-06-27T12:53:15.418Z,56.60
2019-06-27T12:55:45.113Z,56.50
2019-06-27T12:58:14.495Z,56.00
2019-06-27T13:00:43.898Z,55.70
2019-06-27T13:03:13.355Z,55.30
2019-06-27T13:05:42.818Z,54.90
2019-06-27T13:08:12.285Z,54.60
2019-06-27T13:10:41.651Z,54.50
2019-06-27T13:13:11.084Z,54.50
2019-06-27T13:15:40.547Z,54.30
2019-06-27T13:18:09.965Z,54.10
2019-06-27T13:20:47.321Z,53.80
2019-06-27T13:23:10.479Z,53.70
2019-06-27T13:25:39.945Z,53.50
2019-06-27T13:28:09.448Z,53.20
2019-06-27T13:30:38.878Z,53.30
2019-06-27T13:33:08.287Z,53.20
2019-06-27T13:35:37.668Z,53.20
2019-06-27T13:38:07.225Z,53.00
2019-06-27T13:40:36.722Z,52.70
2019-06-27T13:43:06.179Z,52.70
2019-06-27T13:45:35.658Z,52.50
2019-06-27T13:48:05.195Z,52.30
2019-06-27T13:50:34.636Z,52.40
2019-06-27T13:53:04.084Z,52.30
2019-06-27T13:55:33.540Z,52.30
2019-06-27T13:58:03.010Z,52.30
2019-06-27T14:00:43.255Z,52.40
2019-06-27T14:03:12.644Z,52.40
2019-06-27T14:05:42.232Z,52.50
2019-06-27T14:08:11.718Z,52.60
2019-06-27T14:10:41.143Z,52.30
2019-06-27T14:13:10.521Z,51.70
2019-06-27T14:15:39.975Z,51.30
2019-06-27T14:18:10.986Z,51.10
2019-06-27T14:20:40.324Z,51.20
2019-06-27T14:23:09.762Z,50.70
2019-06-27T14:25:39.155Z,50.00
2019-06-27T14:28:08.587Z,49.50
2019-06-27T14:30:37.991Z,49.10
2019-06-27T14:33:07.411Z,48.80
2019-06-27T14:35:36.794Z,48.50
2019-06-27T14:38:06.195Z,47.90
2019-06-27T14:40:35.573Z,47.40
2019-06-27T14:43:04.987Z,47.00
2019-06-27T14:45:34.392Z,46.90
2019-06-27T14:48:03.850Z,46.50
2019-06-27T14:50:33.223Z,46.30
2019-06-27T14:53:02.792Z,46.00
2019-06-27T14:55:32.238Z,46.00
2019-06-27T14:58:01.623Z,46.60
2019-06-27T15:00:31.136Z,46.80
2019-06-27T15:03:00.553Z,46.80
2019-06-27T15:05:33.194Z,46.80
2019-06-27T15:08:01.136Z,46.70
2019-06-27T15:10:30.601Z,46.50
2019-06-27T15:12:59.956Z,46.40
2019-06-27T15:15:29.367Z,46.30
2019-06-27T15:17:58.762Z,46.40
2019-06-27T15:20:28.268Z,46.20
2019-06-27T15:22:57.676Z,46.30
2019-06-27T15:25:28.434Z,46.30
2019-06-27T15:27:57.979Z,46.50
2019-06-27T15:30:27.369Z,46.80
2019-06-27T15:32:56.806Z,47.10
2019-06-27T15:35:26.203Z,47.20
2019-06-27T15:37:55.768Z,47.10
2019-06-27T15:40:25.139Z,47.10
2019-06-27T15:42:54.611Z,47.00
2019-06-27T15:45:24.106Z,46.80
2019-06-27T15:47:53.495Z,46.30
2019-06-27T15:50:22.908Z,45.60
2019-06-27T15:52:52.360Z,44.70
2019-06-27T15:55:21.786Z,43.90
2019-06-27T15:57:51.193Z,43.30
2019-06-27T16:00:21.425Z,42.30
2019-06-27T16:02:50.909Z,41.40
2019-06-27T16:05:20.322Z,40.50
2019-06-27T16:07:49.778Z,40.00
2019-06-27T16:10:19.212Z,38.90
2019-06-27T16:12:48.739Z,38.00
2019-06-27T16:15:18.384Z,37.50
2019-06-27T16:17:47.936Z,37.10
2019-06-27T16:20:18.480Z,36.80
2019-06-27T16:22:47.950Z,36.70
2019-06-27T16:25:17.459Z,36.60
2019-06-27T16:27:46.875Z,36.30
2019-06-27T16:30:16.676Z,35.60
2019-06-27T16:32:46.233Z,35.20
2019-06-27T16:35:18.277Z,34.90
2019-06-27T16:37:47.728Z,34.60
2019-06-27T16:40:17.370Z,34.10
2019-06-27T16:42:47.052Z,33.70
2019-06-27T16:45:17.554Z,33.50
2019-06-27T16:47:47.038Z,33.40
2019-06-27T16:50:16.679Z,33.40
2019-06-27T16:52:46.146Z,33.00
2019-06-27T16:55:15.712Z,32.30
2019-06-27T16:57:45.205Z,31.70
2019-06-27T17:00:15.220Z,31.30
2019-06-27T17:02:44.616Z,30.60
2019-06-27T17:05:14.140Z,30.00
2019-06-27T17:07:43.615Z,29.60
2019-06-27T17:10:13.371Z,29.30
2019-06-27T17:12:42.815Z,29.20
2019-06-27T17:15:12.414Z,29.10
2019-06-27T17:17:41.783Z,28.80
2019-06-27T17:20:11.267Z,28.90
2019-06-27T17:22:42.878Z,28.60
2019-06-27T17:25:12.799Z,28.60
2019-06-27T17:27:42.192Z,28.30
2019-06-27T17:30:13.397Z,28.30
2019-06-27T17:32:42.789Z,28.50
2019-06-27T17:35:12.307Z,28.70
2019-06-27T17:37:41.673Z,28.80
2019-06-27T17:40:11.402Z,29.30
2019-06-27T17:42:40.777Z,30.30
2019-06-27T17:45:10.485Z,32.00
2019-06-27T17:47:39.874Z,33.40
2019-06-27T17:50:09.377Z,34.60
2019-06-27T17:52:38.828Z,35.50
2019-06-27T17:55:08.179Z,36.30
2019-06-27T17:57:37.671Z,36.80
2019-06-27T18:00:08.417Z,37.40
2019-06-27T18:02:37.811Z,37.70
2019-06-27T18:05:07.205Z,38.00
2019-06-27T18:07:36.791Z,38.40
2019-06-27T18:10:06.636Z,38.90
2019-06-27T18:12:36.020Z,39.20
2019-06-27T18:15:07.012Z,40.20
2019-06-27T18:17:36.415Z,40.00
2019-06-27T18:20:06.168Z,40.50
2019-06-27T18:22:35.815Z,40.80
2019-06-27T18:25:05.485Z,41.00
2019-06-27T18:27:35.753Z,41.20
2019-06-27T18:30:05.803Z,41.40
2019-06-27T18:32:35.175Z,41.80
2019-06-27T18:35:05.375Z,42.10
2019-06-27T18:37:34.790Z,42.50
2019-06-27T18:40:04.501Z,43.40
2019-06-27T18:42:33.913Z,43.10
2019-06-27T18:45:03.304Z,43.40
2019-06-27T18:47:32.710Z,43.50
2019-06-27T18:50:02.104Z,43.60
2019-06-27T18:52:31.574Z,43.90
2019-06-27T18:55:01.107Z,44.20
2019-06-27T18:57:30.488Z,44.40
2019-06-27T18:59:59.916Z,44.60
2019-06-27T19:02:29.343Z,44.80
2019-06-27T19:04:58.777Z,45.10
2019-06-27T19:07:28.195Z,45.40
2019-06-27T19:09:57.924Z,45.70
2019-06-27T19:12:27.301Z,45.90
2019-06-27T19:14:56.803Z,46.20
2019-06-27T19:17:26.853Z,46.70
2019-06-27T19:19:58.939Z,47.20
2019-06-27T19:22:49.356Z,47.50
2019-06-27T19:25:28.911Z,47.90
2019-06-27T19:27:58.332Z,48.40
2019-06-27T19:30:27.691Z,48.70
2019-06-27T19:32:57.090Z,49.00
2019-06-27T19:35:26.479Z,49.40
2019-06-27T19:38:02.194Z,49.70
2019-06-27T19:40:27.034Z,50.00
2019-06-27T19:42:56.468Z,50.40
2019-06-27T19:45:25.853Z,50.70
2019-06-27T19:47:55.232Z,51.00
2019-06-27T19:50:24.656Z,51.30
2019-06-27T19:52:54.045Z,51.50
2019-06-27T19:55:23.442Z,51.70
2019-06-27T19:57:52.858Z,51.90
2019-06-27T20:00:22.546Z,51.80
2019-06-27T20:02:51.957Z,51.80
2019-06-27T20:05:21.298Z,51.80
2019-06-27T20:07:50.655Z,52.00
2019-06-27T20:10:20.308Z,52.10
2019-06-27T20:12:49.776Z,52.20
2019-06-27T20:15:19.188Z,52.10
2019-06-27T20:17:48.688Z,52.20
2019-06-27T20:20:18.314Z,52.20
2019-06-27T20:22:47.729Z,52.20
2019-06-27T20:25:17.199Z,52.20
2019-06-27T20:27:46.594Z,52.30
2019-06-27T20:30:16.603Z,52.10
2019-06-27T20:32:45.976Z,52.20
2019-06-27T20:35:15.899Z,51.90
2019-06-27T20:37:46.113Z,52.30
2019-06-27T20:40:15.979Z,51.70
2019-06-27T20:42:45.377Z,51.50
2019-06-27T20:45:14.962Z,51.50
2019-06-27T20:47:44.378Z,51.50
2019-06-27T20:50:13.949Z,51.30
2019-06-27T20:52:43.361Z,51.20
2019-06-27T20:55:12.804Z,51.70
2019-06-27T20:57:42.208Z,51.20
2019-06-27T21:00:12.186Z,51.10
2019-06-27T21:02:41.583Z,51.00
2019-06-27T21:05:11.181Z,51.10
2019-06-27T21:07:40.593Z,51.10
2019-06-27T21:10:10.430Z,51.20
2019-06-27T21:12:39.825Z,51.20
2019-06-27T21:15:10.011Z,51.30
2019-06-27T21:17:39.401Z,51.30
2019-06-27T21:20:08.985Z,51.30
2019-06-27T21:22:38.400Z,51.30
2019-06-27T21:25:08.300Z,51.30
2019-06-27T21:27:37.703Z,51.30
2019-06-27T21:30:07.663Z,51.50
2019-06-27T21:32:37.068Z,51.60
2019-06-27T21:35:06.546Z,51.70
2019-06-27T21:37:35.930Z,51.80
2019-06-27T21:40:05.610Z,51.90
2019-06-27T21:42:34.980Z,52.00
2019-06-27T21:45:04.480Z,52.20
2019-06-27T21:47:33.877Z,52.20
2019-06-27T21:50:03.325Z,52.30
2019-06-27T21:52:32.738Z,52.30
2019-06-27T21:55:02.135Z,52.40
2019-06-27T21:57:31.588Z,52.50
2019-06-27T22:00:00.965Z,52.40
2019-06-27T22:02:30.419Z,52.20
2019-06-27T22:04:59.793Z,52.10
2019-06-27T22:07:29.196Z,52.00
2019-06-27T22:09:58.713Z,52.00
2019-06-27T22:12:28.132Z,52.00
2019-06-27T22:14:57.536Z,52.20
2019-06-27T22:17:26.923Z,52.30
2019-06-27T22:19:56.343Z,52.50
2019-06-27T22:22:25.732Z,52.60
2019-06-27T22:24:55.104Z,52.70
2019-06-27T22:27:24.541Z,52.70
2019-06-27T22:29:53.942Z,52.80
2019-06-27T22:32:23.367Z,52.80
2019-06-27T22:34:52.816Z,52.60
2019-06-27T22:37:24.022Z,52.60
2019-06-27T22:40:12.540Z,52.70
2019-06-27T22:42:59.504Z,52.70
2019-06-27T22:45:46.219Z,52.80
2019-06-27T22:48:14.888Z,52.80
2019-06-27T22:51:11.134Z,52.70
2019-06-27T22:53:59.834Z,52.70
2019-06-27T22:56:29.220Z,52.60
2019-06-27T22:58:58.657Z,52.40
2019-06-27T23:01:28.031Z,52.20
2019-06-27T23:03:57.464Z,52.80
2019-06-27T23:06:26.855Z,52.30
2019-06-27T23:08:56.265Z,52.40
2019-06-27T23:11:25.707Z,52.50
2019-06-27T23:13:55.084Z,52.40
2019-06-27T23:16:24.524Z,52.20
2019-06-27T23:18:53.899Z,52.00
2019-06-27T23:21:23.331Z,51.90
2019-06-27T23:23:52.752Z,51.70
2019-06-27T23:26:22.252Z,51.60
2019-06-27T23:28:51.626Z,51.60
2019-06-27T23:31:21.014Z,51.50
2019-06-27T23:33:50.410Z,51.70
2019-06-27T23:36:19.801Z,51.70
2019-06-27T23:38:49.200Z,51.80
2019-06-27T23:41:18.584Z,51.80
2019-06-27T23:43:47.973Z,52.10
2019-06-27T23:46:34.788Z,52.20
2019-06-27T23:49:04.200Z,52.20
2019-06-27T23:51:33.591Z,52.20
2019-06-27T23:54:02.965Z,52.20
2019-06-27T23:56:32.416Z,52.10
2019-06-27T23:59:01.825Z,52.00
